Terminal Aerodrome Forecast
Issued by NWS Wilmington, OH

Current Version | Previous Version | Text Only | Print | Product List | Glossary Off
Versions: 1 2 3 4 5 6 7 8 9 10 11 12 13

000
FTUS41 KILN 100500
TAFILN
TAF
KILN 100525Z 1006/1106 00000KT P6SM SCT110
      TEMPO 1006/1010 BKN110
     FM101500 36006KT P6SM SCT050
     FM110000 02003KT P6SM SKC=

USA.gov is the U.S. government's official web portal to all federal, state and local government web resources and services.